createdAt,value
2019-05-15T00:00:49.195Z,29.88
2019-05-15T00:01:49.214Z,29.90
2019-05-15T00:02:49.233Z,29.84
2019-05-15T00:03:49.470Z,29.99
2019-05-15T00:04:49.355Z,29.97
2019-05-15T00:05:49.758Z,29.92
2019-05-15T00:06:49.315Z,29.90
2019-05-15T00:07:49.332Z,29.94
2019-05-15T00:08:49.354Z,29.99
2019-05-15T00:09:49.382Z,29.99
2019-05-15T00:10:49.391Z,30.06
2019-05-15T00:11:49.411Z,30.05
2019-05-15T00:12:49.432Z,30.13
2019-05-15T00:13:49.448Z,30.22
2019-05-15T00:14:49.471Z,30.12
2019-05-15T00:15:49.489Z,30.18
2019-05-15T00:16:49.511Z,30.16
2019-05-15T00:17:49.535Z,30.18
2019-05-15T00:18:49.549Z,30.21
2019-05-15T00:19:49.574Z,30.27
2019-05-15T00:20:49.919Z,30.24
2019-05-15T00:21:49.608Z,30.24
2019-05-15T00:22:49.631Z,30.27
2019-05-15T00:23:49.650Z,30.32
2019-05-15T00:24:49.673Z,30.34
2019-05-15T00:25:49.690Z,30.40
2019-05-15T00:26:49.708Z,30.36
2019-05-15T00:27:49.739Z,30.34
2019-05-15T00:28:49.754Z,30.40
2019-05-15T00:29:49.776Z,30.59
2019-05-15T00:30:49.792Z,30.48
2019-05-15T00:31:49.812Z,30.52
2019-05-15T00:32:49.836Z,30.52
2019-05-15T00:33:49.853Z,30.52
2019-05-15T00:34:49.875Z,30.54
2019-05-15T00:35:49.891Z,30.52
2019-05-15T00:36:49.912Z,30.54
2019-05-15T00:37:49.952Z,30.54
2019-05-15T00:38:49.951Z,30.50
2019-05-15T00:39:49.971Z,30.56
2019-05-15T00:40:49.990Z,30.56
2019-05-15T00:41:54.283Z,30.57
2019-05-15T00:42:50.036Z,30.48
2019-05-15T00:43:50.055Z,30.62
2019-05-15T00:44:50.072Z,30.60
2019-05-15T00:45:50.090Z,30.59
2019-05-15T00:46:50.117Z,30.60
2019-05-15T00:47:50.133Z,30.60
2019-05-15T00:48:50.159Z,30.66
2019-05-15T00:49:50.173Z,30.62
2019-05-15T00:50:50.194Z,30.57
2019-05-15T00:51:50.213Z,30.59
2019-05-15T00:52:50.232Z,30.63
2019-05-15T00:53:50.253Z,30.69
2019-05-15T00:54:50.276Z,30.63
2019-05-15T00:55:50.294Z,30.70
2019-05-15T00:56:50.318Z,30.67
2019-05-15T00:57:50.334Z,30.67
2019-05-15T00:58:50.354Z,30.74
2019-05-15T00:59:50.377Z,30.69
2019-05-15T01:00:50.396Z,30.75
2019-05-15T01:01:50.423Z,30.75
2019-05-15T01:02:50.436Z,30.74
2019-05-15T01:03:50.483Z,30.82
2019-05-15T01:04:50.511Z,30.78
2019-05-15T01:05:50.526Z,30.87
2019-05-15T01:06:52.679Z,30.74
2019-05-15T01:07:50.583Z,30.78
2019-05-15T01:08:50.591Z,30.89
2019-05-15T01:09:50.641Z,30.87
2019-05-15T01:10:50.640Z,30.93
2019-05-15T01:11:50.652Z,30.88
2019-05-15T01:12:50.672Z,30.88
2019-05-15T01:13:50.692Z,30.84
2019-05-15T01:14:50.713Z,30.94
2019-05-15T01:15:50.729Z,31.02
2019-05-15T01:16:50.757Z,31.03
2019-05-15T01:17:50.772Z,31.03
2019-05-15T01:18:50.791Z,31.04
2019-05-15T01:19:50.805Z,31.04
2019-05-15T01:20:50.829Z,31.11
2019-05-15T01:21:50.851Z,31.18
2019-05-15T01:22:50.843Z,31.15
2019-05-15T01:23:50.865Z,31.14
2019-05-15T01:24:50.884Z,31.14
2019-05-15T01:25:50.908Z,31.16
2019-05-15T01:26:50.943Z,31.19
2019-05-15T01:27:50.957Z,31.16
2019-05-15T01:28:50.968Z,31.29
2019-05-15T01:29:50.993Z,31.22
2019-05-15T01:30:51.009Z,31.22
2019-05-15T01:31:51.029Z,31.21
2019-05-15T01:32:51.050Z,31.19
2019-05-15T01:33:51.071Z,31.30
2019-05-15T01:34:51.105Z,31.34
2019-05-15T01:35:51.114Z,31.31
2019-05-15T01:36:51.142Z,31.33
2019-05-15T01:37:51.155Z,31.37
2019-05-15T01:38:51.171Z,31.38
2019-05-15T01:39:51.194Z,31.36
2019-05-15T01:40:51.212Z,31.48
2019-05-15T01:41:51.236Z,31.43
2019-05-15T01:42:51.254Z,31.44
2019-05-15T01:43:51.283Z,31.29
2019-05-15T01:44:51.298Z,31.34
2019-05-15T01:45:51.320Z,31.34
2019-05-15T01:46:51.340Z,31.40
2019-05-15T01:47:51.360Z,31.46
2019-05-15T01:48:51.378Z,31.40
2019-05-15T01:49:51.403Z,31.49
2019-05-15T01:50:51.423Z,31.41
2019-05-15T01:51:51.442Z,31.48
2019-05-15T01:52:52.378Z,31.43
2019-05-15T01:53:51.480Z,31.55
2019-05-15T01:54:51.502Z,31.55
2019-05-15T01:55:51.524Z,31.66
2019-05-15T01:56:51.547Z,31.60
2019-05-15T01:57:52.053Z,31.60
2019-05-15T01:58:51.587Z,31.58
2019-05-15T01:59:57.208Z,31.67
2019-05-15T02:00:51.628Z,31.66
2019-05-15T02:01:51.648Z,31.67
2019-05-15T02:02:51.951Z,31.59
2019-05-15T02:03:51.692Z,31.67
2019-05-15T02:04:51.713Z,31.62
2019-05-15T02:05:51.734Z,31.66
2019-05-15T02:06:51.777Z,31.68
2019-05-15T02:07:51.779Z,31.67
2019-05-15T02:08:51.796Z,31.75
2019-05-15T02:09:51.816Z,31.77
2019-05-15T02:10:51.839Z,31.77
2019-05-15T02:11:51.870Z,31.80
2019-05-15T02:12:51.878Z,31.81
2019-05-15T02:13:51.900Z,31.78
2019-05-15T02:14:51.923Z,31.81
2019-05-15T02:15:51.942Z,31.77
2019-05-15T02:16:51.965Z,31.78
2019-05-15T02:17:51.985Z,31.80
2019-05-15T02:18:52.019Z,31.78
2019-05-15T02:19:52.025Z,31.77
2019-05-15T02:20:52.065Z,31.80
2019-05-15T02:21:52.070Z,31.78
2019-05-15T02:22:52.092Z,31.80
2019-05-15T02:23:52.110Z,31.74
2019-05-15T02:24:52.131Z,31.82
2019-05-15T02:25:52.155Z,31.77
2019-05-15T02:26:52.173Z,31.93
2019-05-15T02:27:52.196Z,31.93
2019-05-15T02:28:52.809Z,31.94
2019-05-15T02:29:52.267Z,31.98
2019-05-15T02:30:52.263Z,31.97
2019-05-15T02:31:52.277Z,32.13
2019-05-15T02:32:52.304Z,32.16
2019-05-15T02:33:52.329Z,32.16
2019-05-15T02:34:52.356Z,32.19
2019-05-15T02:35:52.370Z,32.16
2019-05-15T02:36:52.390Z,32.16
2019-05-15T02:37:52.403Z,32.23
2019-05-15T02:38:52.427Z,32.23
2019-05-15T02:39:52.451Z,32.27
2019-05-15T02:40:59.158Z,32.34
2019-05-15T02:41:52.499Z,32.23
2019-05-15T02:42:53.829Z,32.27
2019-05-15T02:43:53.057Z,32.28
2019-05-15T02:44:52.673Z,32.35
2019-05-15T02:45:52.624Z,32.38
2019-05-15T02:46:52.599Z,32.42
2019-05-15T02:47:52.617Z,32.46
2019-05-15T02:48:52.653Z,32.43
2019-05-15T02:49:52.661Z,32.49
2019-05-15T02:50:52.697Z,32.47
2019-05-15T02:51:52.702Z,32.60
2019-05-15T02:52:52.726Z,32.61
2019-05-15T02:53:52.748Z,32.61
2019-05-15T02:54:52.766Z,32.60
2019-05-15T02:55:52.791Z,32.57
2019-05-15T02:56:52.810Z,32.61
2019-05-15T02:57:52.831Z,32.62
2019-05-15T02:58:52.877Z,32.60
2019-05-15T02:59:52.886Z,32.61
2019-05-15T03:00:53.706Z,32.61
2019-05-15T03:01:52.922Z,32.71
2019-05-15T03:02:53.046Z,32.71
2019-05-15T03:03:52.967Z,32.74
2019-05-15T03:04:53.191Z,32.75
2019-05-15T03:05:53.002Z,32.82
2019-05-15T03:06:53.026Z,32.80
2019-05-15T03:07:53.048Z,32.82
2019-05-15T03:08:53.067Z,32.89
2019-05-15T03:09:53.104Z,32.93
2019-05-15T03:10:53.118Z,32.95
2019-05-15T03:11:53.135Z,32.96
2019-05-15T03:12:53.161Z,33.05
2019-05-15T03:13:53.176Z,33.04
2019-05-15T03:14:53.202Z,33.08
2019-05-15T03:15:53.220Z,33.02
2019-05-15T03:16:53.403Z,33.04
2019-05-15T03:17:53.349Z,33.08
2019-05-15T03:18:55.724Z,33.08
2019-05-15T03:19:53.315Z,33.18
2019-05-15T03:20:53.561Z,33.09
2019-05-15T03:21:53.389Z,33.17
2019-05-15T03:22:53.453Z,33.20
2019-05-15T03:23:53.405Z,33.12
2019-05-15T03:24:53.415Z,33.14
2019-05-15T03:25:53.447Z,33.17
2019-05-15T03:26:53.460Z,33.20
2019-05-15T03:27:53.485Z,33.29
2019-05-15T03:28:58.987Z,33.27
2019-05-15T03:29:53.524Z,33.21
2019-05-15T03:32:13.164Z,33.28
2019-05-15T03:33:02.325Z,33.34
2019-05-15T03:33:54.793Z,33.34
2019-05-15T03:34:56.503Z,33.24
2019-05-15T03:35:55.008Z,33.39
2019-05-15T03:36:53.785Z,33.36
2019-05-15T03:37:53.707Z,33.46
2019-05-15T03:38:53.721Z,33.47
2019-05-15T03:39:53.744Z,33.41
2019-05-15T03:40:53.766Z,33.44
2019-05-15T03:41:53.791Z,33.43
2019-05-15T03:42:53.820Z,33.41
2019-05-15T03:43:53.846Z,33.52
2019-05-15T03:44:53.856Z,33.44
2019-05-15T03:45:53.876Z,33.41
2019-05-15T03:46:53.913Z,33.46
2019-05-15T03:47:53.922Z,33.52
2019-05-15T03:48:53.943Z,33.54
2019-05-15T03:49:53.964Z,33.50
2019-05-15T03:50:53.992Z,33.58
2019-05-15T03:51:54.011Z,33.62
2019-05-15T03:52:54.033Z,33.70
2019-05-15T03:53:54.062Z,33.63
2019-05-15T03:54:54.080Z,33.68
2019-05-15T03:55:54.099Z,33.70
2019-05-15T03:56:54.122Z,33.70
2019-05-15T03:57:54.147Z,33.66
2019-05-15T03:58:54.181Z,33.70
2019-05-15T03:59:54.197Z,33.77
2019-05-15T04:00:54.207Z,33.74
2019-05-15T04:01:54.229Z,33.70
2019-05-15T04:02:55.157Z,33.85
2019-05-15T04:03:54.275Z,33.92
2019-05-15T04:04:57.196Z,33.89
2019-05-15T04:05:54.319Z,33.90
2019-05-15T04:06:54.347Z,33.95
2019-05-15T04:07:54.460Z,33.95
2019-05-15T04:08:54.418Z,33.92
2019-05-15T04:09:54.409Z,33.85
2019-05-15T04:10:54.434Z,33.85
2019-05-15T04:11:54.453Z,33.98
2019-05-15T04:12:54.476Z,33.93
2019-05-15T04:13:54.498Z,33.98
2019-05-15T04:14:54.661Z,33.99
2019-05-15T04:15:54.667Z,34.03
2019-05-15T04:16:54.565Z,34.07
2019-05-15T04:17:54.586Z,34.11
2019-05-15T04:18:54.616Z,34.17
2019-05-15T04:19:54.656Z,34.17
2019-05-15T04:20:54.674Z,34.17
2019-05-15T04:21:54.675Z,34.17
2019-05-15T04:22:54.698Z,34.17
2019-05-15T04:23:54.723Z,34.14
2019-05-15T04:24:54.747Z,34.20
2019-05-15T04:25:54.767Z,34.11
2019-05-15T04:26:54.791Z,34.18
2019-05-15T04:27:54.811Z,34.14
2019-05-15T04:28:54.847Z,34.20
2019-05-15T04:29:54.856Z,34.15
2019-05-15T04:30:54.880Z,34.11
2019-05-15T04:32:01.021Z,34.11
2019-05-15T04:32:54.925Z,34.12
2019-05-15T04:33:54.950Z,34.21
2019-05-15T04:34:54.970Z,34.15
2019-05-15T04:35:54.994Z,34.15
2019-05-15T04:36:55.018Z,34.24
2019-05-15T04:37:55.042Z,34.18
2019-05-15T04:38:55.057Z,34.32
2019-05-15T04:39:55.089Z,34.30
2019-05-15T04:40:55.103Z,34.32
2019-05-15T04:41:55.125Z,34.30
2019-05-15T04:42:55.154Z,34.26
2019-05-15T04:43:55.177Z,34.36
2019-05-15T04:44:55.201Z,34.27
2019-05-15T04:45:59.195Z,34.32
2019-05-15T04:46:55.267Z,34.36
2019-05-15T04:47:58.540Z,34.40
2019-05-15T04:48:55.283Z,34.33
2019-05-15T04:49:55.309Z,34.37
2019-05-15T04:50:55.333Z,34.32
2019-05-15T04:52:00.261Z,34.40
2019-05-15T04:52:59.029Z,34.34
2019-05-15T04:53:58.465Z,34.44
2019-05-15T04:54:55.430Z,34.40
2019-05-15T04:55:55.526Z,34.42
2019-05-15T04:56:55.472Z,34.42
2019-05-15T04:57:55.490Z,34.42
2019-05-15T04:58:55.676Z,34.47
2019-05-15T04:59:55.544Z,34.47
2019-05-15T05:00:55.555Z,34.44
2019-05-15T05:02:12.947Z,34.49
2019-05-15T05:02:58.760Z,34.52
2019-05-15T05:03:58.722Z,34.51
2019-05-15T05:04:58.610Z,34.61
2019-05-15T05:05:58.836Z,34.63
2019-05-15T05:06:58.527Z,34.63
2019-05-15T05:07:55.724Z,34.72
2019-05-15T05:08:55.739Z,34.77
2019-05-15T05:09:55.758Z,34.72
2019-05-15T05:10:58.838Z,34.77
2019-05-15T05:11:58.117Z,34.86
2019-05-15T05:12:55.828Z,34.89
2019-05-15T05:13:55.848Z,34.84
2019-05-15T05:14:58.613Z,34.83
2019-05-15T05:15:58.476Z,34.86
2019-05-15T05:16:55.918Z,34.91
2019-05-15T05:17:58.417Z,34.84
2019-05-15T05:18:55.971Z,34.89
2019-05-15T05:19:58.242Z,34.97
2019-05-15T05:20:57.749Z,34.94
2019-05-15T05:21:56.036Z,34.94
2019-05-15T05:22:58.249Z,34.97
2019-05-15T05:23:56.078Z,35.01
2019-05-15T05:24:58.368Z,34.97
2019-05-15T05:25:58.099Z,35.05
2019-05-15T05:26:58.109Z,35.09
2019-05-15T05:27:58.044Z,35.16
2019-05-15T05:29:01.092Z,35.20
2019-05-15T05:29:58.590Z,35.20
2019-05-15T05:30:58.576Z,35.23
2019-05-15T05:31:58.457Z,35.39
2019-05-15T05:32:57.989Z,35.34
2019-05-15T05:33:57.780Z,35.39
2019-05-15T05:34:58.810Z,35.42
2019-05-15T05:35:58.347Z,35.39
2019-05-15T05:36:58.885Z,35.30
2019-05-15T05:37:58.323Z,35.34
2019-05-15T05:38:58.403Z,35.39
2019-05-15T05:39:57.698Z,35.23
2019-05-15T05:40:58.643Z,35.33
2019-05-15T05:41:58.661Z,35.31
2019-05-15T05:42:56.516Z,35.33
2019-05-15T05:43:58.581Z,35.21
2019-05-15T05:44:58.221Z,35.26
2019-05-15T05:45:58.248Z,35.31
2019-05-15T05:46:58.218Z,35.38
2019-05-15T05:47:58.062Z,35.18
2019-05-15T05:48:58.320Z,35.13
2019-05-15T05:49:58.177Z,35.20
2019-05-15T05:50:58.380Z,35.15
2019-05-15T05:51:58.724Z,35.28
2019-05-15T05:52:57.946Z,35.30
2019-05-15T05:53:58.879Z,35.39
2019-05-15T05:54:58.136Z,35.38
2019-05-15T05:55:58.023Z,35.38
2019-05-15T05:56:58.608Z,35.45
2019-05-15T05:57:58.429Z,35.48
2019-05-15T05:58:58.582Z,35.38
2019-05-15T05:59:58.317Z,35.42
2019-05-15T06:00:58.623Z,35.36
2019-05-15T06:01:58.950Z,35.46
2019-05-15T06:02:59.119Z,35.49
2019-05-15T06:03:58.322Z,35.60
2019-05-15T06:04:58.240Z,35.62
2019-05-15T06:05:59.005Z,35.68
2019-05-15T06:07:06.983Z,35.68
2019-05-15T06:07:58.192Z,35.68
2019-05-15T06:08:58.399Z,35.73
2019-05-15T06:09:58.148Z,35.75
2019-05-15T06:10:58.475Z,35.71
2019-05-15T06:11:58.336Z,35.67
2019-05-15T06:12:58.697Z,35.61
2019-05-15T06:13:58.376Z,35.68
2019-05-15T06:14:58.093Z,35.68
2019-05-15T06:15:59.041Z,35.76
2019-05-15T06:16:58.866Z,35.76
2019-05-15T06:17:58.541Z,35.84
2019-05-15T06:18:58.662Z,35.84
2019-05-15T06:19:58.629Z,35.84
2019-05-15T06:20:58.623Z,35.86
2019-05-15T06:22:00.774Z,35.84
2019-05-15T06:22:58.026Z,35.86
2019-05-15T06:24:03.577Z,35.86
2019-05-15T06:24:57.992Z,35.82
2019-05-15T06:25:59.224Z,35.76
2019-05-15T06:26:58.680Z,35.75
2019-05-15T06:27:58.341Z,35.79
2019-05-15T06:28:58.409Z,35.68
2019-05-15T06:29:58.086Z,35.58
2019-05-15T06:31:00.635Z,35.69
2019-05-15T06:31:58.754Z,35.73
2019-05-15T06:33:05.663Z,35.69
2019-05-15T06:33:58.158Z,35.75
2019-05-15T06:34:57.897Z,35.73
2019-05-15T06:35:59.220Z,35.69
2019-05-15T06:36:58.892Z,35.69
2019-05-15T06:37:59.118Z,35.64
2019-05-15T06:38:59.026Z,35.67
2019-05-15T06:39:58.839Z,35.62
2019-05-15T06:40:58.359Z,35.61
2019-05-15T06:41:58.833Z,35.55
2019-05-15T06:42:59.323Z,35.58
2019-05-15T06:43:58.916Z,35.55
2019-05-15T06:44:58.948Z,35.52
2019-05-15T06:45:58.565Z,35.55
2019-05-15T06:46:58.753Z,35.46
2019-05-15T06:48:01.369Z,35.48
2019-05-15T06:48:58.257Z,35.45
2019-05-15T06:49:58.090Z,35.38
2019-05-15T06:50:58.118Z,35.46
2019-05-15T06:51:58.267Z,35.50
2019-05-15T06:52:58.732Z,35.46
2019-05-15T06:53:58.409Z,35.45
2019-05-15T06:54:59.275Z,35.38
2019-05-15T06:55:58.595Z,35.45
2019-05-15T06:56:58.524Z,35.43
2019-05-15T06:57:58.519Z,35.34
2019-05-15T06:58:58.358Z,35.43
2019-05-15T06:59:58.350Z,35.39
2019-05-15T07:00:59.283Z,35.39
2019-05-15T07:01:59.392Z,35.39
2019-05-15T07:02:58.496Z,35.38
2019-05-15T07:03:59.061Z,35.48
2019-05-15T07:04:58.537Z,35.39
2019-05-15T07:05:59.748Z,35.45
2019-05-15T07:06:58.561Z,35.48
2019-05-15T07:07:58.655Z,35.40
2019-05-15T07:08:58.826Z,35.42
2019-05-15T07:09:58.551Z,35.45
2019-05-15T07:10:58.585Z,35.45
2019-05-15T07:11:59.071Z,35.48
2019-05-15T07:12:58.649Z,35.52
2019-05-15T07:13:58.645Z,35.50
2019-05-15T07:14:58.679Z,35.42
2019-05-15T07:15:58.777Z,35.53
2019-05-15T07:16:59.173Z,35.39
2019-05-15T07:17:58.742Z,35.52
2019-05-15T07:18:59.049Z,35.43
2019-05-15T07:19:59.389Z,35.42
2019-05-15T07:20:58.841Z,35.46
2019-05-15T07:21:58.832Z,35.45
2019-05-15T07:22:58.856Z,35.43
2019-05-15T07:23:58.879Z,35.50
2019-05-15T07:24:58.917Z,35.40
2019-05-15T07:25:58.963Z,35.34
2019-05-15T07:26:59.290Z,35.43
2019-05-15T07:27:58.975Z,35.34
2019-05-15T07:28:59.610Z,35.28
2019-05-15T07:29:59.021Z,35.34
2019-05-15T07:30:59.048Z,35.36
2019-05-15T07:31:59.071Z,35.34
2019-05-15T07:32:59.091Z,35.34
2019-05-15T07:33:59.984Z,35.38
2019-05-15T07:34:59.141Z,35.38
2019-05-15T07:35:59.262Z,35.36
2019-05-15T07:36:59.365Z,35.39
2019-05-15T07:37:59.221Z,35.33
2019-05-15T07:38:59.271Z,35.39
2019-05-15T07:39:59.295Z,35.36
2019-05-15T07:41:03.429Z,35.34
2019-05-15T07:41:59.299Z,35.42
2019-05-15T07:42:59.328Z,35.34
2019-05-15T07:43:59.346Z,35.30
2019-05-15T07:44:59.369Z,35.30
2019-05-15T07:45:59.391Z,35.36
2019-05-15T07:46:59.416Z,35.33
2019-05-15T07:47:59.465Z,35.38
2019-05-15T07:48:59.468Z,35.34
2019-05-15T07:49:59.512Z,35.33
2019-05-15T07:50:59.620Z,35.39
2019-05-15T07:51:59.532Z,35.45
2019-05-15T07:52:59.572Z,35.40
2019-05-15T07:54:02.550Z,35.43
2019-05-15T07:54:59.601Z,35.34
2019-05-15T07:56:01.124Z,35.39
2019-05-15T07:56:59.661Z,35.45
2019-05-15T07:57:59.673Z,35.46
2019-05-15T07:58:59.764Z,35.48
2019-05-15T07:59:59.722Z,35.57
2019-05-15T08:00:59.742Z,35.60
2019-05-15T08:01:59.765Z,35.65
2019-05-15T08:02:59.793Z,35.61
2019-05-15T08:04:21.710Z,35.62
2019-05-15T08:04:59.834Z,35.61
2019-05-15T08:06:02.966Z,35.69
2019-05-15T08:06:59.882Z,35.61
2019-05-15T08:07:59.906Z,35.71
2019-05-15T08:08:59.938Z,35.57
2019-05-15T08:09:59.956Z,35.57
2019-05-15T08:11:14.834Z,35.58
2019-05-15T08:12:03.134Z,35.57
2019-05-15T08:13:00.024Z,35.61
2019-05-15T08:14:00.050Z,35.68
2019-05-15T08:15:00.071Z,35.57
2019-05-15T08:16:00.092Z,35.57
2019-05-15T08:17:00.116Z,35.52
2019-05-15T08:18:08.698Z,35.57
2019-05-15T08:19:00.165Z,35.52
2019-05-15T08:20:00.187Z,35.46
2019-05-15T08:21:00.208Z,35.52
2019-05-15T08:22:00.233Z,35.50
2019-05-15T08:23:00.258Z,35.46
2019-05-15T08:24:00.280Z,35.38
2019-05-15T08:25:00.303Z,35.45
2019-05-15T08:26:00.326Z,35.43
2019-05-15T08:27:00.348Z,35.48
2019-05-15T08:28:00.375Z,35.40
2019-05-15T08:29:00.402Z,35.34
2019-05-15T08:30:00.423Z,35.39
2019-05-15T08:31:00.443Z,35.42
2019-05-15T08:32:00.469Z,35.42
2019-05-15T08:33:00.510Z,35.46
2019-05-15T08:34:12.801Z,35.49
2019-05-15T08:35:00.537Z,35.43
2019-05-15T08:36:00.561Z,35.40
2019-05-15T08:37:00.586Z,35.45
2019-05-15T08:38:00.606Z,35.43
2019-05-15T08:39:00.631Z,35.43
2019-05-15T08:40:00.689Z,35.50
2019-05-15T08:41:00.729Z,35.43
2019-05-15T08:42:00.700Z,35.34
2019-05-15T08:43:02.121Z,35.40
2019-05-15T08:44:00.752Z,35.43
2019-05-15T08:45:00.770Z,35.34
2019-05-15T08:46:00.800Z,35.39
2019-05-15T08:47:00.818Z,35.30
2019-05-15T08:48:00.841Z,35.42
2019-05-15T08:49:00.868Z,35.45
2019-05-15T08:50:00.899Z,35.45
2019-05-15T08:51:00.913Z,35.50
2019-05-15T08:52:00.935Z,35.43
2019-05-15T08:53:00.962Z,35.46
2019-05-15T08:54:00.988Z,35.50
2019-05-15T08:55:01.018Z,35.52
2019-05-15T08:56:01.031Z,35.48
2019-05-15T08:57:01.056Z,35.52
2019-05-15T08:58:06.702Z,35.43
2019-05-15T08:59:01.106Z,35.49
2019-05-15T09:00:01.153Z,35.49
2019-05-15T09:01:01.183Z,35.43
2019-05-15T09:02:01.168Z,35.43
2019-05-15T09:03:01.207Z,35.46
2019-05-15T09:04:01.238Z,35.45
2019-05-15T09:05:01.258Z,35.48
2019-05-15T09:06:01.264Z,35.42
2019-05-15T09:07:01.462Z,35.42
2019-05-15T09:08:01.313Z,35.43
2019-05-15T09:09:01.365Z,35.46
2019-05-15T09:10:01.360Z,35.45
2019-05-15T09:11:01.378Z,35.50
2019-05-15T09:12:01.401Z,35.48
2019-05-15T09:13:01.423Z,35.43
2019-05-15T09:14:01.446Z,35.46
2019-05-15T09:15:01.477Z,35.46
2019-05-15T09:16:01.512Z,35.39
2019-05-15T09:17:01.519Z,35.40
2019-05-15T09:18:14.797Z,35.45
2019-05-15T09:19:01.583Z,35.46
2019-05-15T09:20:01.590Z,35.38
2019-05-15T09:21:01.700Z,35.36
2019-05-15T09:22:01.633Z,35.33
2019-05-15T09:23:01.683Z,35.33
2019-05-15T09:24:01.681Z,35.23
2019-05-15T09:25:01.721Z,35.13
2019-05-15T09:26:01.729Z,35.20
2019-05-15T09:27:01.770Z,35.18
2019-05-15T09:28:01.777Z,35.20
2019-05-15T09:29:01.883Z,35.18
2019-05-15T09:30:01.820Z,35.23
2019-05-15T09:31:01.849Z,35.18
2019-05-15T09:32:01.868Z,35.16
2019-05-15T09:33:01.977Z,35.12
2019-05-15T09:34:01.946Z,35.15
2019-05-15T09:35:01.939Z,35.13
2019-05-15T09:36:02.034Z,35.01
2019-05-15T09:37:02.010Z,35.05
2019-05-15T09:38:02.004Z,34.99
2019-05-15T09:39:02.042Z,34.96
2019-05-15T09:40:02.052Z,35.01
2019-05-15T09:41:02.076Z,34.93
2019-05-15T09:42:02.100Z,34.93
2019-05-15T09:43:02.119Z,34.94
2019-05-15T09:44:02.156Z,34.94
2019-05-15T09:45:02.188Z,34.94
2019-05-15T09:46:02.190Z,34.96
2019-05-15T09:47:02.214Z,34.93
2019-05-15T09:48:02.265Z,34.97
2019-05-15T09:49:02.260Z,34.96
2019-05-15T09:50:02.282Z,34.90
2019-05-15T09:51:02.309Z,34.93
2019-05-15T09:52:02.328Z,34.89
2019-05-15T09:53:02.367Z,34.89
2019-05-15T09:54:02.387Z,34.94
2019-05-15T09:55:02.501Z,34.93
2019-05-15T09:56:02.421Z,34.91
2019-05-15T09:57:02.444Z,34.87
2019-05-15T09:58:02.469Z,34.91
2019-05-15T09:59:02.490Z,34.94
2019-05-15T10:00:02.515Z,34.89
2019-05-15T10:01:02.542Z,34.83
2019-05-15T10:02:02.559Z,34.82
2019-05-15T10:03:02.595Z,34.86
2019-05-15T10:04:02.607Z,34.78
2019-05-15T10:05:06.667Z,34.87
2019-05-15T10:06:02.649Z,34.84
2019-05-15T10:07:02.715Z,34.78
2019-05-15T10:08:02.738Z,34.89
2019-05-15T10:09:02.725Z,34.79
2019-05-15T10:10:02.742Z,34.83
2019-05-15T10:11:02.766Z,34.84
2019-05-15T10:12:02.793Z,34.82
2019-05-15T10:13:02.810Z,34.84
2019-05-15T10:14:02.833Z,34.72
2019-05-15T10:15:02.861Z,34.77
2019-05-15T10:16:02.878Z,34.66
2019-05-15T10:17:02.908Z,34.59
2019-05-15T10:18:02.922Z,34.56
2019-05-15T10:19:02.946Z,34.55
2019-05-15T10:20:02.970Z,34.59
2019-05-15T10:21:03.003Z,34.51
2019-05-15T10:22:03.016Z,34.56
2019-05-15T10:23:03.058Z,34.52
2019-05-15T10:24:03.060Z,34.52
2019-05-15T10:25:03.083Z,34.54
2019-05-15T10:26:03.119Z,34.52
2019-05-15T10:27:03.133Z,34.42
2019-05-15T10:28:03.152Z,34.45
2019-05-15T10:29:03.175Z,34.44
2019-05-15T10:30:03.200Z,34.44
2019-05-15T10:31:03.230Z,34.47
2019-05-15T10:32:03.244Z,34.45
2019-05-15T10:33:03.267Z,34.44
2019-05-15T10:34:03.306Z,34.42
2019-05-15T10:35:03.324Z,34.47
2019-05-15T10:36:03.332Z,34.32
2019-05-15T10:37:03.358Z,34.37
2019-05-15T10:38:03.392Z,34.33
2019-05-15T10:39:03.440Z,34.32
2019-05-15T10:40:03.425Z,34.29
2019-05-15T10:41:09.385Z,34.29
2019-05-15T10:42:03.471Z,34.24
2019-05-15T10:43:03.495Z,34.26
2019-05-15T10:44:03.516Z,34.24
2019-05-15T10:45:03.542Z,34.30
2019-05-15T10:46:03.563Z,34.34
2019-05-15T10:47:03.583Z,34.33
2019-05-15T10:48:03.604Z,34.30
2019-05-15T10:49:03.645Z,34.36
2019-05-15T10:50:03.662Z,34.32
2019-05-15T10:51:07.182Z,34.29
2019-05-15T10:52:03.697Z,34.33
2019-05-15T10:53:03.822Z,34.34
2019-05-15T10:54:03.744Z,34.21
2019-05-15T10:55:03.766Z,34.26
2019-05-15T10:56:03.801Z,34.22
2019-05-15T10:57:05.375Z,34.26
2019-05-15T10:58:03.838Z,34.21
2019-05-15T10:59:03.859Z,34.26
2019-05-15T11:00:03.875Z,34.18
2019-05-15T11:01:04.211Z,34.21
2019-05-15T11:02:03.920Z,34.11
2019-05-15T11:03:03.950Z,34.11
2019-05-15T11:04:03.965Z,34.17
2019-05-15T11:05:04.001Z,34.07
2019-05-15T11:06:04.208Z,34.05
2019-05-15T11:07:04.369Z,33.98
2019-05-15T11:08:04.522Z,33.98
2019-05-15T11:09:18.814Z,34.02
2019-05-15T11:10:04.353Z,33.99
2019-05-15T11:11:04.139Z,34.02
2019-05-15T11:12:04.145Z,33.93
2019-05-15T11:13:04.169Z,33.93
2019-05-15T11:14:04.196Z,33.85
2019-05-15T11:15:04.213Z,33.89
2019-05-15T11:16:04.239Z,33.89
2019-05-15T11:17:04.257Z,33.90
2019-05-15T11:18:04.286Z,33.99
2019-05-15T11:19:04.321Z,33.84
2019-05-15T11:20:04.325Z,33.84
2019-05-15T11:21:04.352Z,33.80
2019-05-15T11:22:04.445Z,33.76
2019-05-15T11:23:04.422Z,33.74
2019-05-15T11:24:04.423Z,33.78
2019-05-15T11:25:04.446Z,33.77
2019-05-15T11:26:04.719Z,33.80
2019-05-15T11:27:13.550Z,33.78
2019-05-15T11:28:04.502Z,33.87
2019-05-15T11:29:04.529Z,33.76
2019-05-15T11:30:04.673Z,33.74
2019-05-15T11:31:05.572Z,33.65
2019-05-15T11:32:04.817Z,33.58
2019-05-15T11:33:04.710Z,33.63
2019-05-15T11:34:04.637Z,33.68
2019-05-15T11:35:04.825Z,33.62
2019-05-15T11:36:06.236Z,33.61
2019-05-15T11:37:04.709Z,33.61
2019-05-15T11:38:04.726Z,33.68
2019-05-15T11:39:04.748Z,33.63
2019-05-15T11:40:04.780Z,33.66
2019-05-15T11:41:04.889Z,33.66
2019-05-15T11:42:04.817Z,33.70
2019-05-15T11:43:04.836Z,33.65
2019-05-15T11:44:04.878Z,33.63
2019-05-15T11:45:04.882Z,33.66
2019-05-15T11:46:04.906Z,33.58
2019-05-15T11:47:04.926Z,33.56
2019-05-15T11:48:04.948Z,33.56
2019-05-15T11:49:04.973Z,33.58
2019-05-15T11:50:04.992Z,33.54
2019-05-15T11:51:05.124Z,33.52
2019-05-15T11:52:05.227Z,33.50
2019-05-15T11:53:05.181Z,33.39
2019-05-15T11:54:05.085Z,33.47
2019-05-15T11:55:05.105Z,33.50
2019-05-15T11:56:05.125Z,33.46
2019-05-15T11:57:05.149Z,33.39
2019-05-15T11:58:05.170Z,33.40
2019-05-15T11:59:05.193Z,33.40
2019-05-15T12:00:05.484Z,33.39
2019-05-15T12:01:05.236Z,33.47
2019-05-15T12:02:05.372Z,33.41
2019-05-15T12:03:05.281Z,33.39
2019-05-15T12:04:05.307Z,33.29
2019-05-15T12:05:05.325Z,33.33
2019-05-15T12:06:15.973Z,33.31
2019-05-15T12:07:05.369Z,33.29
2019-05-15T12:08:05.390Z,33.23
2019-05-15T12:09:05.418Z,33.31
2019-05-15T12:10:05.435Z,33.24
2019-05-15T12:11:05.468Z,33.27
2019-05-15T12:12:05.484Z,33.21
2019-05-15T12:13:05.503Z,33.20
2019-05-15T12:14:05.536Z,33.16
2019-05-15T12:15:05.549Z,33.09
2019-05-15T12:16:05.579Z,33.23
2019-05-15T12:17:12.427Z,33.12
2019-05-15T12:18:05.610Z,33.23
2019-05-15T12:19:09.512Z,33.11
2019-05-15T12:20:07.099Z,33.06
2019-05-15T12:21:05.677Z,33.09
2019-05-15T12:22:05.699Z,33.06
2019-05-15T12:23:08.691Z,33.11
2019-05-15T12:24:08.522Z,33.04
2019-05-15T12:25:09.306Z,33.11
2019-05-15T12:26:08.803Z,33.08
2019-05-15T12:27:15.359Z,33.06
2019-05-15T12:28:09.109Z,33.01
2019-05-15T12:29:05.858Z,33.05
2019-05-15T12:30:09.786Z,33.06
2019-05-15T12:31:05.906Z,33.04
2019-05-15T12:32:25.390Z,32.96
2019-05-15T12:33:05.979Z,33.05
2019-05-15T12:34:05.963Z,32.98
2019-05-15T12:35:05.985Z,32.96
2019-05-15T12:36:06.007Z,33.08
2019-05-15T12:37:09.466Z,32.99
2019-05-15T12:38:08.878Z,32.96
2019-05-15T12:39:10.583Z,32.98
2019-05-15T13:00:07.629Z,32.72
2019-05-15T13:01:14.587Z,32.64
2019-05-15T13:02:08.253Z,32.69
2019-05-15T13:03:08.898Z,32.75
2019-05-15T13:04:08.266Z,32.71
2019-05-15T13:05:08.549Z,32.68
2019-05-15T13:06:08.065Z,32.64
2019-05-15T13:07:14.022Z,32.57
2019-05-15T13:08:08.372Z,32.62
2019-05-15T13:09:08.614Z,32.55
2019-05-15T13:10:08.728Z,32.61
2019-05-15T13:11:10.210Z,32.57
2019-05-15T13:12:08.527Z,32.60
2019-05-15T13:13:09.681Z,32.52
2019-05-15T13:14:08.123Z,32.60